createdAt,value
2022-12-20T00:01:56.508Z,102293.34
2022-12-20T00:04:24.995Z,102286.28
2022-12-20T00:06:53.405Z,102283.66
2022-12-20T00:09:21.762Z,102282.75
2022-12-20T00:11:50.083Z,102285.38
2022-12-20T00:14:19.016Z,102282.72
2022-12-20T00:16:47.328Z,102284.50
2022-12-20T00:19:15.659Z,102287.16
2022-12-20T00:21:43.980Z,102287.16
2022-12-20T00:24:12.489Z,102279.22
2022-12-20T00:26:40.894Z,102288.03
2022-12-20T00:29:09.307Z,102295.97
2022-12-20T00:31:38.177Z,102297.75
2022-12-20T00:34:06.961Z,102295.94
2022-12-20T00:36:35.556Z,102283.63
2022-12-20T00:39:04.028Z,102282.72
2022-12-20T00:41:34.869Z,102286.25
2022-12-20T00:44:04.580Z,102293.28
2022-12-20T00:46:33.647Z,102291.53
2022-12-20T00:49:02.400Z,102288.88
2022-12-20T00:51:33.495Z,102277.41
2022-12-20T00:54:01.899Z,102281.81
2022-12-20T00:56:30.263Z,102280.03
2022-12-20T00:59:01.077Z,102279.16
2022-12-20T01:01:32.555Z,102286.22
2022-12-20T01:04:01.846Z,102288.88
2022-12-20T01:06:31.979Z,102291.50
2022-12-20T01:09:01.171Z,102289.75
2022-12-20T01:11:32.379Z,102295.03
2022-12-20T01:14:04.388Z,102298.56
2022-12-20T01:16:58.962Z,102301.19
2022-12-20T01:19:27.485Z,102301.16
2022-12-20T01:21:56.116Z,102301.19
2022-12-20T01:24:24.478Z,102307.31
2022-12-20T01:26:52.990Z,102317.00
2022-12-20T01:29:21.455Z,102319.63
2022-12-20T01:31:49.862Z,102325.78
2022-12-20T01:34:18.708Z,102324.88
2022-12-20T01:36:47.055Z,102322.25
2022-12-20T01:39:17.849Z,102328.41
2022-12-20T01:41:47.386Z,102333.69
2022-12-20T01:44:18.556Z,102331.03
2022-12-20T01:46:49.755Z,102335.47
2022-12-20T01:49:25.757Z,102336.34
2022-12-20T01:52:16.787Z,102338.13
2022-12-20T01:54:56.528Z,102329.31
2022-12-20T01:57:52.575Z,102328.44
2022-12-20T02:00:21.439Z,102342.47
2022-12-20T02:02:51.178Z,102343.34
2022-12-20T02:05:21.777Z,102341.59
2022-12-20T02:07:52.929Z,102343.34
2022-12-20T02:10:24.967Z,102345.09
2022-12-20T02:13:07.561Z,102344.19
2022-12-20T02:15:41.489Z,102337.16
2022-12-20T02:18:49.339Z,102342.44
2022-12-20T02:21:37.265Z,102353.88
2022-12-20T02:24:35.214Z,102363.56
2022-12-20T02:27:25.044Z,102368.00
2022-12-20T02:30:09.388Z,102375.94
2022-12-20T02:32:50.047Z,102374.16
2022-12-20T02:35:24.630Z,102372.41
2022-12-20T02:37:55.981Z,102362.69
2022-12-20T02:40:28.912Z,102362.66
2022-12-20T02:43:02.967Z,102359.13
2022-12-20T02:45:37.722Z,102371.44
2022-12-20T02:48:07.528Z,102364.41
2022-12-20T02:50:45.614Z,102363.53
2022-12-20T02:53:15.347Z,102367.03
2022-12-20T02:56:12.817Z,102354.72
2022-12-20T02:59:37.467Z,102371.44
2022-12-20T03:02:07.291Z,102377.56
2022-12-20T03:04:40.606Z,102387.25
2022-12-20T03:07:12.609Z,102390.78
2022-12-20T03:09:43.928Z,102402.25
2022-12-20T03:12:14.313Z,102402.28
2022-12-20T03:14:42.671Z,102404.91
2022-12-20T03:17:11.093Z,102403.16
2022-12-20T03:19:39.513Z,102393.50
2022-12-20T03:22:07.865Z,102386.47
2022-12-20T03:24:36.187Z,102391.72
2022-12-20T03:27:04.468Z,102401.38
2022-12-20T03:29:32.842Z,102403.09
2022-12-20T03:32:01.167Z,102397.81
2022-12-20T03:34:29.498Z,102397.78
2022-12-20T03:36:57.789Z,102402.19
2022-12-20T03:39:26.113Z,102403.06
2022-12-20T03:41:54.526Z,102415.41
2022-12-20T03:44:23.051Z,102418.91
2022-12-20T03:46:51.513Z,102423.31
2022-12-20T03:49:19.824Z,102417.19
2022-12-20T03:51:48.220Z,102423.31
2022-12-20T03:54:16.623Z,102422.44
2022-12-20T03:56:45.029Z,102429.47
2022-12-20T03:59:13.330Z,102439.16
2022-12-20T04:01:41.960Z,102447.97
2022-12-20T04:04:14.202Z,102454.13
2022-12-20T04:06:43.186Z,102455.88
2022-12-20T04:09:11.829Z,102453.25
2022-12-20T04:11:40.597Z,102458.53
2022-12-20T04:14:08.942Z,102462.94
2022-12-20T04:16:37.785Z,102460.31
2022-12-20T04:19:06.370Z,102470.88
2022-12-20T04:21:37.083Z,102475.31
2022-12-20T04:24:06.887Z,102481.44
2022-12-20T04:26:35.631Z,102484.09
2022-12-20T04:29:04.100Z,102484.97
2022-12-20T04:31:32.679Z,102476.13
2022-12-20T04:34:01.086Z,102476.13
2022-12-20T04:36:29.417Z,102484.94
2022-12-20T04:38:57.729Z,102467.28
2022-12-20T04:41:27.946Z,102474.34
2022-12-20T04:43:59.660Z,102473.47
2022-12-20T04:46:28.324Z,102468.19
2022-12-20T04:48:58.981Z,102488.41
2022-12-20T04:51:28.946Z,102484.00
2022-12-20T04:53:58.337Z,102492.81
2022-12-20T04:56:29.693Z,102491.03
2022-12-20T04:59:00.098Z,102497.19
2022-12-20T05:01:28.923Z,102491.91
2022-12-20T05:03:57.635Z,102497.19
2022-12-20T05:06:26.370Z,102485.75
2022-12-20T05:08:56.125Z,102481.38
2022-12-20T05:11:24.475Z,102485.78
2022-12-20T05:13:52.903Z,102501.63
2022-12-20T05:16:21.494Z,102505.13
2022-12-20T05:18:50.005Z,102501.63
2022-12-20T05:21:36.621Z,102498.97
2022-12-20T05:24:23.357Z,102498.09
2022-12-20T05:26:51.925Z,102503.38
2022-12-20T05:29:20.369Z,102510.38
2022-12-20T05:31:48.826Z,102514.78
2022-12-20T05:34:17.738Z,102514.78
2022-12-20T05:36:46.047Z,102516.59
2022-12-20T05:39:14.615Z,102523.63
2022-12-20T05:41:42.878Z,102532.41
2022-12-20T05:44:11.175Z,102521.88
2022-12-20T05:46:39.660Z,102519.25
2022-12-20T05:49:07.988Z,102531.59
2022-12-20T05:51:36.455Z,102536.00
2022-12-20T05:54:04.928Z,102533.34
2022-12-20T05:56:33.259Z,102516.63
2022-12-20T05:59:01.675Z,102522.78
2022-12-20T06:01:30.130Z,102534.19
2022-12-20T06:03:58.582Z,102540.34
2022-12-20T06:06:26.891Z,102555.31
2022-12-20T06:08:57.188Z,102557.06
2022-12-20T06:11:29.823Z,102568.56
2022-12-20T06:14:00.285Z,102569.41
2022-12-20T06:16:28.844Z,102559.72
2022-12-20T06:18:57.761Z,102550.88
2022-12-20T06:21:26.205Z,102545.59
2022-12-20T06:23:54.531Z,102554.38
2022-12-20T06:26:24.205Z,102557.91
2022-12-20T06:28:57.972Z,102558.78
2022-12-20T06:31:26.333Z,102564.06
2022-12-20T06:33:54.872Z,102564.94
2022-12-20T06:36:23.130Z,102571.09
2022-12-20T06:38:51.792Z,102562.25
2022-12-20T06:41:20.543Z,102561.38
2022-12-20T06:43:49.099Z,102561.38
2022-12-20T06:46:17.522Z,102544.66
2022-12-20T06:48:45.892Z,102551.69
2022-12-20T06:51:14.187Z,102556.97
2022-12-20T06:53:42.556Z,102556.09
2022-12-20T06:56:10.914Z,102551.69
2022-12-20T06:58:39.196Z,102552.53
2022-12-20T07:01:07.752Z,102552.53
2022-12-20T07:03:36.111Z,102561.34
2022-12-20T07:06:05.045Z,102555.19
2022-12-20T07:08:33.678Z,102561.28
2022-12-20T07:11:07.357Z,102574.53
2022-12-20T07:13:35.964Z,102580.75
2022-12-20T07:16:05.797Z,102584.25
2022-12-20T07:18:36.293Z,102578.03
2022-12-20T07:21:06.880Z,102573.56
2022-12-20T07:23:35.662Z,102576.19
2022-12-20T07:26:04.867Z,102574.44
2022-12-20T07:28:33.263Z,102563.88
2022-12-20T07:31:05.422Z,102546.22
2022-12-20T07:33:34.583Z,102558.50
2022-12-20T07:36:13.448Z,102557.63
2022-12-20T07:38:41.795Z,102574.31
2022-12-20T07:41:12.653Z,102576.94
2022-12-20T07:43:41.111Z,102572.47
2022-12-20T07:46:10.021Z,102580.34
2022-12-20T07:48:38.699Z,102593.53
2022-12-20T07:51:21.412Z,102592.66
2022-12-20T07:53:54.193Z,102589.09
2022-12-20T07:56:24.283Z,102602.31
2022-12-20T07:58:57.256Z,102591.72
2022-12-20T08:01:28.224Z,102598.72
2022-12-20T08:04:06.522Z,102591.63
2022-12-20T08:06:37.185Z,102587.22
2022-12-20T08:09:07.587Z,102586.28
2022-12-20T08:11:38.237Z,102584.41
2022-12-20T08:14:09.173Z,102572.09
2022-12-20T08:16:37.759Z,102573.84
2022-12-20T08:19:06.059Z,102573.84
2022-12-20T08:21:34.713Z,102580.91
2022-12-20T08:24:03.155Z,102586.16
2022-12-20T08:26:31.500Z,102584.41
2022-12-20T08:28:59.852Z,102588.81
2022-12-20T08:31:28.184Z,102587.06
2022-12-20T08:33:57.530Z,102580.91
2022-12-20T08:36:25.883Z,102574.75
2022-12-20T08:38:54.339Z,102577.44
2022-12-20T08:41:22.845Z,102573.88
2022-12-20T08:43:51.200Z,102572.09
2022-12-20T08:46:19.564Z,102580.06
2022-12-20T08:48:47.850Z,102575.69
2022-12-20T08:51:16.161Z,102574.81
2022-12-20T08:53:44.560Z,102580.06
2022-12-20T08:56:18.526Z,102579.13
2022-12-20T08:58:47.341Z,102584.47
2022-12-20T09:01:18.530Z,102585.34
2022-12-20T09:03:47.958Z,102582.72
2022-12-20T09:06:20.119Z,102595.94
2022-12-20T09:08:49.724Z,102589.75
2022-12-20T09:11:21.249Z,102590.56
2022-12-20T09:13:51.870Z,102594.97
2022-12-20T09:16:23.390Z,102594.09
2022-12-20T09:19:02.477Z,102590.56
2022-12-20T09:21:33.412Z,102588.78
2022-12-20T09:24:02.042Z,102584.41
2022-12-20T09:26:31.638Z,102600.19
2022-12-20T09:29:00.295Z,102609.84
2022-12-20T09:31:29.027Z,102621.34
2022-12-20T09:33:59.681Z,102618.75
2022-12-20T09:36:29.812Z,102624.91
2022-12-20T09:38:58.860Z,102617.88
2022-12-20T09:41:40.750Z,102611.72
2022-12-20T09:44:31.331Z,102620.47
2022-12-20T09:47:10.700Z,102620.41
2022-12-20T09:49:43.974Z,102625.63
2022-12-20T09:52:58.472Z,102615.06
2022-12-20T09:55:49.209Z,102619.50
2022-12-20T09:58:48.270Z,102614.25
2022-12-20T10:01:25.007Z,102631.88
2022-12-20T10:03:55.693Z,102625.78
2022-12-20T10:06:42.524Z,102619.66
2022-12-20T10:09:30.990Z,102615.19
2022-12-20T10:12:14.222Z,102608.16
2022-12-20T10:14:57.065Z,102602.81
2022-12-20T10:17:35.610Z,102612.34
2022-12-20T10:20:12.735Z,102622.06
2022-12-20T10:23:00.622Z,102610.66
2022-12-20T10:25:34.222Z,102610.59
2022-12-20T10:28:07.787Z,102617.56
2022-12-20T10:30:36.602Z,102620.13
2022-12-20T10:33:05.093Z,102613.97
2022-12-20T10:35:40.071Z,102605.13
2022-12-20T10:38:16.713Z,102603.34
2022-12-20T10:41:19.998Z,102600.75
2022-12-20T10:43:46.526Z,102600.75
2022-12-20T10:46:20.164Z,102599.84
2022-12-20T10:48:51.653Z,102589.25
2022-12-20T10:51:23.171Z,102592.69
2022-12-20T10:53:51.485Z,102593.50
2022-12-20T10:56:39.964Z,102585.59
2022-12-20T10:59:18.179Z,102566.25
2022-12-20T11:01:49.492Z,102579.44
2022-12-20T11:04:37.127Z,102576.75
2022-12-20T11:07:27.869Z,102582.00
2022-12-20T11:09:58.809Z,102586.31
2022-12-20T11:12:27.298Z,102580.13
2022-12-20T11:15:29.575Z,102575.72
2022-12-20T11:18:42.211Z,102574.78
2022-12-20T11:21:28.265Z,102569.50
2022-12-20T11:24:19.813Z,102563.34
2022-12-20T11:27:03.116Z,102564.16
2022-12-20T11:29:34.364Z,102566.88
2022-12-20T11:32:23.549Z,102565.06
2022-12-20T11:35:00.702Z,102553.63
2022-12-20T11:37:33.528Z,102558.88
2022-12-20T11:40:23.976Z,102557.13
2022-12-20T11:43:04.772Z,102545.69
2022-12-20T11:45:51.728Z,102543.09
2022-12-20T11:48:27.967Z,102545.72
2022-12-20T11:51:07.563Z,102548.41
2022-12-20T11:54:00.243Z,102529.97
2022-12-20T11:56:44.799Z,102523.78
2022-12-20T11:59:34.977Z,102516.81
2022-12-20T12:02:17.856Z,102515.94
2022-12-20T12:04:57.584Z,102511.53
2022-12-20T12:07:32.289Z,102514.19
2022-12-20T12:10:25.560Z,102522.06
2022-12-20T12:13:03.013Z,102518.56
2022-12-20T12:15:57.409Z,102510.66
2022-12-20T12:18:29.890Z,102512.41
2022-12-20T12:21:15.322Z,102514.22
2022-12-20T12:23:46.524Z,102518.63
2022-12-20T12:26:26.048Z,102509.91
2022-12-20T12:29:02.530Z,102505.50
2022-12-20T12:31:37.037Z,102512.53
2022-12-20T12:34:13.072Z,102508.13
2022-12-20T12:36:55.884Z,102521.31
2022-12-20T12:40:01.254Z,102524.78
2022-12-20T12:43:06.839Z,102521.28
2022-12-20T12:45:51.698Z,102528.34
2022-12-20T12:49:07.303Z,102532.75
2022-12-20T12:51:38.899Z,102538.00
2022-12-20T12:54:29.420Z,102523.16
2022-12-20T12:57:12.290Z,102527.59
2022-12-20T12:59:40.608Z,102531.13
2022-12-20T13:02:15.247Z,102541.59
2022-12-20T13:05:25.521Z,102545.13
2022-12-20T13:07:54.648Z,102551.31
2022-12-20T13:10:30.519Z,102550.50
2022-12-20T13:13:01.956Z,102553.16
2022-12-20T13:15:31.484Z,102550.50
2022-12-20T13:18:18.837Z,102555.84
2022-12-20T13:21:20.531Z,102551.41
2022-12-20T13:23:48.853Z,102543.50
2022-12-20T13:26:55.905Z,102539.09
2022-12-20T13:29:29.890Z,102540.03
2022-12-20T13:31:58.326Z,102528.59
2022-12-20T13:34:56.924Z,102530.38
2022-12-20T13:37:30.701Z,102516.31
2022-12-20T13:40:01.122Z,102527.72
2022-12-20T13:42:38.648Z,102525.97
2022-12-20T13:45:13.390Z,102525.94
2022-12-20T13:47:55.700Z,102525.03
2022-12-20T13:50:41.565Z,102519.81
2022-12-20T13:53:20.444Z,102524.22
2022-12-20T13:55:50.531Z,102523.34
2022-12-20T13:58:28.089Z,102533.00
2022-12-20T14:01:06.750Z,102537.47
2022-12-20T14:03:41.694Z,102533.06
2022-12-20T14:06:15.377Z,102533.00
2022-12-20T14:08:48.367Z,102540.91
2022-12-20T14:11:20.069Z,102546.16
2022-12-20T14:13:56.228Z,102553.19
2022-12-20T14:16:27.381Z,102562.81
2022-12-20T14:18:58.530Z,102567.22
2022-12-20T14:21:28.389Z,102575.13
2022-12-20T14:24:00.285Z,102576.88
2022-12-20T14:26:30.684Z,102570.72
2022-12-20T14:29:01.619Z,102583.00
2022-12-20T14:31:49.416Z,102593.50
2022-12-20T14:34:29.701Z,102585.59
2022-12-20T14:37:26.883Z,102593.50
2022-12-20T14:40:11.816Z,102592.69
2022-12-20T14:42:41.736Z,102586.53
2022-12-20T14:45:19.444Z,102579.50
2022-12-20T14:47:51.796Z,102579.50
2022-12-20T14:50:23.497Z,102580.38
2022-12-20T14:52:51.950Z,102577.75
2022-12-20T14:55:32.371Z,102574.28
2022-12-20T14:58:01.674Z,102574.25
2022-12-20T15:00:34.052Z,102581.28
2022-12-20T15:03:13.877Z,102588.28
2022-12-20T15:05:51.670Z,102592.63
2022-12-20T15:08:29.895Z,102592.66
2022-12-20T15:11:01.990Z,102601.47
2022-12-20T15:13:39.054Z,102595.31
2022-12-20T15:16:16.942Z,102590.88
2022-12-20T15:18:46.375Z,102597.94
2022-12-20T15:21:18.013Z,102598.84
2022-12-20T15:23:49.694Z,102598.84
2022-12-20T15:26:20.134Z,102593.56
2022-12-20T15:28:48.607Z,102598.84
2022-12-20T15:31:19.774Z,102601.47
2022-12-20T15:33:48.451Z,102608.50
2022-12-20T15:36:27.329Z,102605.00
2022-12-20T15:39:14.089Z,102602.38
2022-12-20T15:41:47.195Z,102598.03
2022-12-20T15:44:21.918Z,102599.78
2022-12-20T15:46:50.552Z,102600.66
2022-12-20T15:49:24.473Z,102604.19
2022-12-20T15:51:54.417Z,102607.75
2022-12-20T15:54:30.657Z,102621.81
2022-12-20T15:57:03.991Z,102627.09
2022-12-20T16:02:25.874Z,102629.81
2022-12-20T16:04:56.228Z,102635.16
2022-12-20T16:07:25.203Z,102635.16
2022-12-20T16:09:53.565Z,102635.22
2022-12-20T16:12:35.985Z,102639.66
2022-12-20T16:15:05.034Z,102652.00
2022-12-20T16:17:33.397Z,102652.97
2022-12-20T16:20:01.780Z,102660.03
2022-12-20T16:22:30.187Z,102660.09
2022-12-20T16:24:58.535Z,102655.75
2022-12-20T16:27:26.917Z,102651.41
2022-12-20T16:29:55.183Z,102663.78
2022-12-20T16:32:23.813Z,102663.88
2022-12-20T16:34:53.056Z,102661.25
2022-12-20T16:37:21.785Z,102667.47
2022-12-20T16:39:50.150Z,102671.00
2022-12-20T16:42:23.685Z,102666.66
2022-12-20T16:44:55.720Z,102671.09
2022-12-20T16:47:24.087Z,102668.47
2022-12-20T16:49:53.781Z,102666.75
2022-12-20T16:52:23.753Z,102665.81
2022-12-20T16:54:53.232Z,102675.44
2022-12-20T16:57:22.367Z,102678.03
2022-12-20T16:59:50.810Z,102682.41
2022-12-20T17:02:33.853Z,102682.34
2022-12-20T17:05:03.159Z,102688.44
2022-12-20T17:07:35.297Z,102695.44
2022-12-20T17:10:06.935Z,102698.09
2022-12-20T17:12:35.278Z,102705.06
2022-12-20T17:15:05.095Z,102699.84
2022-12-20T17:17:33.510Z,102698.97
2022-12-20T17:20:02.062Z,102695.47
2022-12-20T17:22:31.040Z,102706.09
2022-12-20T17:24:59.410Z,102703.47
2022-12-20T17:27:27.809Z,102710.56
2022-12-20T17:29:58.381Z,102708.88
2022-12-20T17:32:26.763Z,102707.16
2022-12-20T17:34:55.371Z,102717.72
2022-12-20T17:37:25.575Z,102710.69
2022-12-20T17:39:53.991Z,102714.28
2022-12-20T17:42:27.039Z,102735.44
2022-12-20T17:44:59.162Z,102743.44
2022-12-20T17:47:27.489Z,102738.16
2022-12-20T17:49:55.963Z,102739.03
2022-12-20T17:52:24.423Z,102732.03
2022-12-20T17:54:52.704Z,102736.47
2022-12-20T17:57:21.085Z,102742.63
2022-12-20T17:59:49.444Z,102744.44
2022-12-20T18:02:25.990Z,102748.91
2022-12-20T18:04:54.684Z,102745.44
2022-12-20T18:07:23.034Z,102750.78
2022-12-20T18:09:51.806Z,102759.63
2022-12-20T18:12:20.300Z,102754.41
2022-12-20T18:14:51.058Z,102758.88
2022-12-20T18:17:19.488Z,102756.28
2022-12-20T18:19:47.850Z,102759.81
2022-12-20T18:22:16.631Z,102762.50
2022-12-20T18:24:45.243Z,102768.78
2022-12-20T18:27:13.884Z,102753.88
2022-12-20T18:29:42.265Z,102746.91
2022-12-20T18:32:10.683Z,102743.41
2022-12-20T18:34:39.246Z,102747.88
2022-12-20T18:37:07.681Z,102740.81
2022-12-20T18:39:37.039Z,102743.50
2022-12-20T18:42:05.544Z,102740.00
2022-12-20T18:44:36.517Z,102738.25
2022-12-20T18:47:05.037Z,102732.13
2022-12-20T18:49:33.486Z,102737.47
2022-12-20T18:52:02.364Z,102719.84
2022-12-20T18:54:31.352Z,102715.44
2022-12-20T18:56:59.949Z,102727.81
2022-12-20T18:59:28.401Z,102726.09
2022-12-20T19:01:56.889Z,102712.06
2022-12-20T19:04:25.490Z,102705.03
2022-12-20T19:06:56.786Z,102703.34
2022-12-20T19:09:25.260Z,102692.81
2022-12-20T19:11:57.407Z,102684.91
2022-12-20T19:14:26.806Z,102669.03
2022-12-20T19:16:55.825Z,102663.78
2022-12-20T19:19:24.241Z,102662.06
2022-12-20T19:21:52.583Z,102666.50
2022-12-20T19:24:20.930Z,102660.34
2022-12-20T19:26:49.843Z,102657.75
2022-12-20T19:29:18.221Z,102663.97
2022-12-20T19:31:46.731Z,102658.72
2022-12-20T19:34:16.450Z,102644.59
2022-12-20T19:36:49.253Z,102628.72
2022-12-20T19:39:26.623Z,102626.97
2022-12-20T19:42:22.401Z,102625.22
2022-12-20T19:44:43.330Z,102623.47
2022-12-20T19:47:11.613Z,102615.53
2022-12-20T19:49:40.022Z,102610.22
2022-12-20T19:52:08.588Z,102601.41
2022-12-20T19:54:36.896Z,102594.34
2022-12-20T19:57:05.509Z,102580.22
2022-12-20T19:59:33.965Z,102577.56
2022-12-20T20:02:02.473Z,102574.91
2022-12-20T20:04:31.025Z,102581.97
2022-12-20T20:06:59.759Z,102581.06
2022-12-20T20:09:28.134Z,102580.22
2022-12-20T20:11:56.456Z,102587.25
2022-12-20T20:14:24.939Z,102583.69
2022-12-20T20:16:53.899Z,102581.03
2022-12-20T20:19:22.189Z,102584.56
2022-12-20T20:21:50.798Z,102570.41
2022-12-20T20:24:19.127Z,102572.19
2022-12-20T20:26:47.464Z,102566.88
2022-12-20T20:29:15.846Z,102557.09
2022-12-20T20:31:44.366Z,102558.84
2022-12-20T20:34:13.232Z,102552.63
2022-12-20T20:36:41.593Z,102557.91
2022-12-20T20:39:10.049Z,102557.91
2022-12-20T20:41:38.355Z,102557.88
2022-12-20T20:44:06.691Z,102558.75
2022-12-20T20:46:35.069Z,102560.50
2022-12-20T20:49:03.602Z,102561.34
2022-12-20T20:51:31.973Z,102551.59
2022-12-20T20:54:00.350Z,102544.50
2022-12-20T20:56:28.777Z,102538.28
2022-12-20T20:59:05.108Z,102533.81
2022-12-20T21:01:35.631Z,102539.13
2022-12-20T21:04:05.779Z,102529.34
2022-12-20T21:06:40.984Z,102526.66
2022-12-20T21:09:11.095Z,102528.44
2022-12-20T21:11:39.909Z,102517.84
2022-12-20T21:14:08.452Z,102515.19
2022-12-20T21:16:37.670Z,102523.13
2022-12-20T21:19:06.642Z,102502.69
2022-12-20T21:21:35.067Z,102494.72
2022-12-20T21:24:03.950Z,102491.16
2022-12-20T21:26:32.612Z,102490.22
2022-12-20T21:29:02.088Z,102487.50
2022-12-20T21:31:31.711Z,102486.59
2022-12-20T21:34:00.289Z,102479.47
2022-12-20T21:36:28.931Z,102476.75
2022-12-20T21:38:59.239Z,102474.94
2022-12-20T21:41:29.892Z,102470.41
2022-12-20T21:44:00.254Z,102467.72
2022-12-20T21:46:32.720Z,102461.47
2022-12-20T21:49:01.365Z,102460.56
2022-12-20T21:51:31.159Z,102456.16
2022-12-20T21:54:02.030Z,102446.38
2022-12-20T21:56:32.833Z,102448.97
2022-12-20T21:59:01.717Z,102449.84
2022-12-20T22:01:30.732Z,102446.28
2022-12-20T22:04:04.527Z,102440.00
2022-12-20T22:06:33.554Z,102440.84
2022-12-20T22:09:03.743Z,102434.66
2022-12-20T22:11:32.408Z,102440.78
2022-12-20T22:14:01.137Z,102434.50
2022-12-20T22:16:32.630Z,102437.13
2022-12-20T22:19:02.048Z,102426.34
2022-12-20T22:21:32.664Z,102425.31
2022-12-20T22:24:02.207Z,102423.44
2022-12-20T22:26:32.979Z,102419.00
2022-12-20T22:29:04.991Z,102421.69
2022-12-20T22:31:33.565Z,102426.94
2022-12-20T22:34:02.857Z,102427.00
2022-12-20T22:36:31.318Z,102426.13
2022-12-20T22:39:00.143Z,102415.50
2022-12-20T22:41:35.747Z,102410.16
2022-12-20T22:44:05.097Z,102401.34
2022-12-20T22:46:33.779Z,102404.00
2022-12-20T22:49:02.395Z,102411.94
2022-12-20T22:51:34.142Z,102408.44
2022-12-20T22:54:02.453Z,102413.78
2022-12-20T22:56:30.843Z,102416.50
2022-12-20T22:58:59.176Z,102410.38
2022-12-20T23:01:28.337Z,102420.13
2022-12-20T23:03:56.842Z,102412.19
2022-12-20T23:06:25.262Z,102411.38
2022-12-20T23:08:53.596Z,102405.25
2022-12-20T23:11:43.138Z,102404.38
2022-12-20T23:14:41.497Z,102405.34
2022-12-20T23:17:11.354Z,102405.41
2022-12-20T23:19:57.995Z,102403.72
2022-12-20T23:22:38.670Z,102407.34
2022-12-20T23:25:15.369Z,102398.53
2022-12-20T23:27:45.870Z,102403.91
2022-12-20T23:30:17.618Z,102403.88
2022-12-20T23:32:46.176Z,102399.50
2022-12-20T23:35:19.523Z,102398.59
2022-12-20T23:37:48.793Z,102401.25
2022-12-20T23:40:18.075Z,102411.91
2022-12-20T23:42:46.897Z,102415.44
2022-12-20T23:45:15.283Z,102409.22
2022-12-20T23:47:43.580Z,102409.22
2022-12-20T23:50:12.399Z,102414.53
2022-12-20T23:52:41.396Z,102413.66
2022-12-20T23:55:10.014Z,102411.03
2022-12-20T23:57:38.340Z,102410.16
